createdAt,value
2019-05-13T04:36:56.404Z,99.90
2019-05-13T04:40:33.178Z,99.90
2019-05-13T04:51:43.547Z,99.90
2019-05-13T04:55:06.886Z,99.90
2019-05-13T04:58:32.242Z,99.90
2019-05-13T05:06:06.607Z,99.90
2019-05-13T05:11:02.199Z,99.90
2019-05-13T05:15:19.791Z,99.90
2019-05-13T05:19:47.395Z,99.90
2019-05-13T05:24:07.865Z,99.90
2019-05-13T05:28:13.973Z,99.90
2019-05-13T05:32:16.080Z,99.90
2019-05-13T05:36:52.009Z,99.90
2019-05-13T05:40:31.037Z,99.90
2019-05-13T05:43:45.587Z,99.90
2019-05-13T05:47:11.289Z,99.90
2019-05-13T05:50:36.006Z,99.90
2019-05-13T05:54:02.584Z,99.90
2019-05-13T05:57:31.391Z,99.90
2019-05-13T06:00:56.013Z,99.90
2019-05-13T06:04:21.860Z,99.90
2019-05-13T06:07:45.226Z,99.90
2019-05-13T06:11:11.620Z,99.90
2019-05-13T06:14:35.438Z,99.90
2019-05-13T06:17:58.755Z,99.90
2019-05-13T06:21:22.541Z,99.90
2019-05-13T06:24:45.706Z,99.90
2019-05-13T06:28:08.900Z,99.90
2019-05-13T06:31:32.474Z,99.90
2019-05-13T06:34:55.755Z,99.90
2019-05-13T06:38:18.985Z,99.90
2019-05-13T06:41:42.153Z,99.90
2019-05-13T06:45:05.654Z,99.90
2019-05-13T06:48:29.374Z,99.90
2019-05-13T06:51:52.894Z,99.90
2019-05-13T06:55:16.219Z,99.90
2019-05-13T06:58:41.536Z,99.90
2019-05-13T07:02:04.707Z,99.90
2019-05-13T07:05:27.832Z,99.90
2019-05-13T07:08:52.128Z,99.90
2019-05-13T07:12:15.595Z,99.90
2019-05-13T07:15:41.413Z,99.90
2019-05-13T07:19:04.258Z,99.90
2019-05-13T07:22:27.845Z,99.90
2019-05-13T07:25:52.478Z,99.90
2019-05-13T07:29:16.669Z,99.90
2019-05-13T07:32:42.090Z,99.90
2019-05-13T07:36:05.499Z,99.90
2019-05-13T07:39:28.932Z,99.90
2019-05-13T07:42:52.362Z,99.90
2019-05-13T07:46:15.537Z,99.90
2019-05-13T07:49:38.906Z,99.90
2019-05-13T07:53:02.465Z,99.90
2019-05-13T07:56:25.746Z,99.90
2019-05-13T07:59:48.941Z,99.90
2019-05-13T08:03:12.615Z,99.90
2019-05-13T08:06:35.970Z,99.90
2019-05-13T08:10:00.933Z,99.90
2019-05-13T08:13:24.695Z,99.90
2019-05-13T08:16:47.886Z,99.90
2019-05-13T08:20:12.548Z,99.90
2019-05-13T08:23:36.764Z,99.90
2019-05-13T08:27:02.082Z,99.90
2019-05-13T08:30:25.218Z,99.90
2019-05-13T08:33:48.441Z,99.90
2019-05-13T08:37:11.673Z,99.90
2019-05-13T08:40:34.914Z,99.90
2019-05-13T08:43:58.088Z,99.90
2019-05-13T08:47:22.377Z,99.90
2019-05-13T08:50:46.754Z,99.90
2019-05-13T08:54:11.448Z,99.90
2019-05-13T08:57:34.974Z,99.90
2019-05-13T09:00:59.133Z,99.90
2019-05-13T09:04:23.638Z,99.90
2019-05-13T09:07:48.148Z,99.90
2019-05-13T09:11:12.024Z,99.90
2019-05-13T09:14:35.479Z,99.90
2019-05-13T09:17:59.129Z,99.90
2019-05-13T09:21:22.605Z,99.90
2019-05-13T09:24:45.866Z,99.90
2019-05-13T09:28:09.218Z,99.90
2019-05-13T09:31:32.620Z,99.90
2019-05-13T09:34:55.878Z,99.90
2019-05-13T09:38:21.883Z,99.90
2019-05-13T09:41:44.827Z,99.90
2019-05-13T09:45:08.591Z,99.50
2019-05-13T09:48:32.243Z,99.90
2019-05-13T09:51:55.472Z,99.90
2019-05-13T09:55:26.533Z,99.40
2019-05-13T09:58:43.831Z,99.10
2019-05-13T10:02:07.170Z,98.70
2019-05-13T10:05:31.653Z,96.70
2019-05-13T10:08:55.247Z,96.10
2019-05-13T10:12:18.412Z,85.50
2019-05-13T10:15:42.691Z,74.90
2019-05-13T10:19:05.938Z,77.00
2019-05-13T10:22:29.080Z,61.40
2019-05-13T10:25:58.599Z,56.70
2019-05-13T10:29:22.606Z,49.60
2019-05-13T10:32:45.987Z,50.20
2019-05-13T10:36:11.911Z,47.00
2019-05-13T10:39:35.340Z,44.20
2019-05-13T10:42:58.732Z,43.60
2019-05-13T10:49:47.038Z,41.90
2019-05-13T10:53:12.335Z,38.20
2019-05-13T10:56:35.558Z,35.30
2019-05-13T11:00:02.363Z,34.00
2019-05-13T11:03:24.286Z,33.30
2019-05-13T11:06:47.695Z,32.40
2019-05-13T11:10:13.259Z,29.10
2019-05-13T11:13:54.068Z,30.40
2019-05-13T11:17:02.082Z,29.70
2019-05-13T11:20:25.909Z,27.70
2019-05-13T11:23:49.598Z,28.90
2019-05-13T11:27:14.620Z,27.40
2019-05-13T11:30:37.937Z,27.20
2019-05-13T11:34:02.379Z,28.10
2019-05-13T11:37:25.614Z,26.60
2019-05-13T11:40:51.790Z,25.70
2019-05-13T11:44:16.768Z,25.40
2019-05-13T11:47:40.931Z,25.60
2019-05-13T11:51:04.505Z,25.50
2019-05-13T11:54:28.963Z,24.50
2019-05-13T11:57:53.120Z,24.20
2019-05-13T12:01:16.518Z,24.50
2019-05-13T12:04:43.076Z,25.00
2019-05-13T12:08:04.810Z,23.70
2019-05-13T12:11:28.163Z,23.10
2019-05-13T12:15:20.285Z,23.40
2019-05-13T12:18:16.724Z,22.90
2019-05-13T12:21:45.299Z,22.80
2019-05-13T12:25:05.945Z,22.80
2019-05-13T12:28:29.325Z,21.90
2019-05-13T12:31:53.379Z,22.40
2019-05-13T12:35:16.901Z,22.80
2019-05-13T12:38:44.015Z,22.40
2019-05-13T12:42:05.346Z,21.20
2019-05-13T12:45:28.884Z,21.80
2019-05-13T12:48:52.118Z,22.40
2019-05-13T12:52:15.815Z,21.60
2019-05-13T12:55:40.098Z,20.40
2019-05-13T12:59:03.609Z,20.70
2019-05-13T13:02:26.925Z,20.40
2019-05-13T13:05:50.207Z,19.90
2019-05-13T13:09:13.491Z,19.60
2019-05-13T13:12:36.760Z,21.10
2019-05-13T13:16:03.496Z,19.90
2019-05-13T13:19:27.522Z,19.30
2019-05-13T13:22:50.993Z,20.10
2019-05-13T13:26:23.429Z,19.70
2019-05-13T13:30:02.846Z,19.10
2019-05-13T13:33:18.672Z,19.10
2019-05-13T13:36:46.092Z,19.70
2019-05-13T13:40:08.401Z,18.70
2019-05-13T13:43:37.032Z,19.20
2019-05-13T13:46:57.061Z,19.60
2019-05-13T13:50:24.502Z,20.10
2019-05-13T13:53:45.518Z,19.50
2019-05-13T13:57:13.130Z,18.90
2019-05-13T14:00:45.175Z,18.70
2019-05-13T14:04:02.809Z,18.20
2019-05-13T14:06:26.940Z,39.20
2019-05-13T14:07:34.499Z,19.00
2019-05-13T14:10:51.466Z,18.50
2019-05-13T14:14:15.066Z,17.60
2019-05-13T14:17:41.593Z,18.50
2019-05-13T14:21:43.496Z,19.20
2019-05-13T14:25:07.399Z,19.20
2019-05-13T14:28:32.746Z,19.10
2019-05-13T14:31:56.006Z,18.10
2019-05-13T14:35:21.790Z,18.10
2019-05-13T14:38:44.852Z,17.90
2019-05-13T14:42:08.058Z,17.90
2019-05-13T14:45:31.887Z,18.70
2019-05-13T14:48:55.427Z,18.10
2019-05-13T14:52:18.796Z,18.00
2019-05-13T14:55:43.795Z,18.60
2019-05-13T14:59:07.026Z,18.10
2019-05-13T15:02:32.070Z,18.30
2019-05-13T15:05:55.738Z,16.50
2019-05-13T15:09:19.164Z,17.00
2019-05-13T15:12:42.657Z,18.60
2019-05-13T15:16:06.191Z,17.30
2019-05-13T15:19:31.607Z,17.90
2019-05-13T15:22:54.925Z,18.10
2019-05-13T15:26:18.720Z,17.30
2019-05-13T15:29:43.309Z,17.30
2019-05-13T15:33:06.491Z,18.10
2019-05-13T15:36:31.528Z,17.20
2019-05-13T15:39:54.685Z,17.80
2019-05-13T15:43:17.923Z,18.50
2019-05-13T15:46:43.779Z,17.70
2019-05-13T15:50:07.133Z,17.40
2019-05-13T15:53:32.043Z,17.60
2019-05-13T15:56:55.725Z,17.70
2019-05-13T16:00:18.988Z,17.70
2019-05-13T16:03:42.428Z,17.70
2019-05-13T16:07:06.079Z,18.60
2019-05-13T16:10:29.503Z,17.90
2019-05-13T16:13:52.816Z,18.70
2019-05-13T16:17:17.066Z,18.40
2019-05-13T16:20:44.949Z,18.20
2019-05-13T16:24:05.361Z,18.00
2019-05-13T16:27:31.050Z,18.60
2019-05-13T16:30:53.918Z,19.90
2019-05-13T16:38:22.024Z,22.80
2019-05-13T16:41:47.272Z,22.70
2019-05-13T16:45:12.501Z,22.20
2019-05-13T17:01:12.002Z,21.80
2019-05-13T17:08:28.074Z,24.90
2019-05-13T17:20:06.040Z,29.40
2019-05-13T17:35:42.463Z,31.50
2019-05-13T17:43:24.275Z,33.50
2019-05-13T17:47:01.745Z,34.70
2019-05-13T17:58:42.797Z,35.50
2019-05-13T18:02:06.847Z,35.80
2019-05-13T18:09:27.677Z,38.10
2019-05-13T18:21:11.911Z,39.90
2019-05-13T18:28:58.033Z,42.80
2019-05-13T18:40:21.797Z,43.20
2019-05-13T18:44:04.479Z,43.10
2019-05-13T18:47:40.250Z,45.00
2019-05-13T18:51:23.299Z,45.50
2019-05-13T18:55:02.052Z,44.20
2019-05-13T18:58:45.071Z,46.90
2019-05-13T19:02:21.370Z,48.70
2019-05-13T19:05:45.330Z,46.70
2019-05-13T19:09:21.707Z,48.40
2019-05-13T19:13:04.692Z,47.70
2019-05-13T19:16:42.166Z,46.00
2019-05-13T19:20:17.933Z,48.90
2019-05-13T19:24:02.079Z,50.00
2019-05-13T19:27:44.812Z,48.40
2019-05-13T19:31:22.120Z,50.40
2019-05-13T19:35:46.415Z,51.20
2019-05-13T19:39:22.804Z,49.40
2019-05-13T19:43:08.149Z,48.90
2019-05-13T19:46:31.690Z,49.40
2019-05-13T19:50:07.493Z,51.30
2019-05-13T19:53:51.671Z,50.00
2019-05-13T19:57:34.258Z,51.80
2019-05-13T20:01:11.650Z,52.00
2019-05-13T20:04:35.121Z,52.30
2019-05-13T20:08:21.187Z,50.90
2019-05-13T20:12:21.255Z,49.20
2019-05-13T20:16:04.070Z,51.00
2019-05-13T20:19:27.335Z,53.10
2019-05-13T20:23:11.889Z,51.70
2019-05-13T20:26:47.131Z,50.80
2019-05-13T20:30:23.583Z,50.60
2019-05-13T20:34:06.190Z,50.10
2019-05-13T20:37:42.601Z,50.20
2019-05-13T20:41:17.902Z,49.80
2019-05-13T20:45:02.390Z,49.90
2019-05-13T20:48:32.338Z,49.70
2019-05-13T20:52:15.538Z,49.50
2019-05-13T20:56:11.829Z,49.90
2019-05-13T20:59:54.353Z,49.50
2019-05-13T21:03:17.484Z,49.60
2019-05-13T21:06:42.224Z,50.90
2019-05-13T21:10:05.944Z,50.10
2019-05-13T21:37:51.241Z,53.30
2019-05-13T21:41:27.377Z,54.50
2019-05-13T21:45:11.161Z,54.80
2019-05-13T21:48:53.491Z,55.40
2019-05-13T21:52:37.183Z,54.70
2019-05-13T21:56:13.014Z,56.40
2019-05-13T21:59:55.713Z,57.90
2019-05-13T22:03:33.559Z,59.70
2019-05-13T22:07:17.445Z,59.10
2019-05-13T22:10:41.639Z,60.90
2019-05-13T22:14:35.370Z,61.90
2019-05-13T22:18:11.389Z,63.70
2019-05-13T22:21:47.504Z,64.60
2019-05-13T22:25:30.339Z,67.30
2019-05-13T22:29:07.546Z,70.90
2019-05-13T22:32:52.170Z,73.00
2019-05-13T22:36:34.059Z,76.20
2019-05-13T22:39:57.543Z,78.90
2019-05-13T22:43:33.699Z,81.40
2019-05-13T22:47:16.335Z,83.90
2019-05-13T22:50:53.485Z,86.40
2019-05-13T22:54:36.043Z,90.50
2019-05-13T22:58:12.097Z,91.10
2019-05-13T23:01:54.793Z,93.30
2019-05-13T23:05:30.878Z,95.60
2019-05-13T23:09:13.486Z,95.90
2019-05-13T23:12:51.400Z,98.40
2019-05-13T23:16:33.798Z,99.90
2019-05-13T23:20:11.053Z,99.90
2019-05-13T23:23:53.672Z,99.90
2019-05-13T23:27:31.979Z,99.90
2019-05-13T23:31:14.159Z,99.90
2019-05-13T23:34:51.258Z,99.90
2019-05-13T23:38:35.017Z,99.90
2019-05-13T23:42:12.187Z,99.90
2019-05-13T23:45:54.904Z,99.90
2019-05-13T23:49:31.676Z,99.90
2019-05-13T23:52:55.072Z,99.90
2019-05-13T23:56:31.111Z,99.90
2019-05-13T23:59:54.244Z,99.90
